createdAt,value
2023-03-01T00:23:44.039Z,0.77
2023-03-01T00:24:44.067Z,0.74
2023-03-01T00:25:44.150Z,0.75
2023-03-01T00:26:44.210Z,0.75
2023-03-01T00:27:44.296Z,0.74
2023-03-01T00:28:44.305Z,0.72
2023-03-01T00:29:44.375Z,0.72
2023-03-01T00:30:44.504Z,0.74
2023-03-01T00:31:44.492Z,0.74
2023-03-01T00:32:44.585Z,0.75
2023-03-01T00:33:44.661Z,0.73
2023-03-01T00:34:44.714Z,0.73
2023-03-01T00:35:44.799Z,0.73
2023-03-01T00:36:44.866Z,0.73
2023-03-01T00:37:44.931Z,0.74
2023-03-01T00:38:44.969Z,0.73
2023-03-01T00:39:45.048Z,0.71
2023-03-01T00:40:45.141Z,0.74
2023-03-01T00:41:45.184Z,0.73
2023-03-01T00:42:45.225Z,0.74
2023-03-01T00:43:45.287Z,0.73
2023-03-01T00:44:45.350Z,0.72
2023-03-01T00:45:45.428Z,0.72
2023-03-01T00:46:45.458Z,0.74
2023-03-01T00:47:45.555Z,0.73
2023-03-01T00:48:45.622Z,0.73
2023-03-01T00:49:45.662Z,0.72
2023-03-01T00:50:45.732Z,0.74
2023-03-01T00:51:45.796Z,0.72
2023-03-01T00:52:45.857Z,0.72
2023-03-01T00:53:45.920Z,0.71
2023-03-01T00:54:45.978Z,0.73
2023-03-01T00:55:46.052Z,0.71
2023-03-01T00:56:46.107Z,0.72
2023-03-01T00:57:46.152Z,0.74
2023-03-01T00:58:46.219Z,0.72
2023-03-01T00:59:46.302Z,0.72
2023-03-01T01:00:46.367Z,0.73
2023-03-01T01:01:46.443Z,0.74
2023-03-01T01:02:46.507Z,0.73
2023-03-01T01:03:46.556Z,0.72
2023-03-01T01:04:46.624Z,0.72
2023-03-01T01:05:46.693Z,0.72
2023-03-01T01:06:46.731Z,0.72
2023-03-01T01:07:46.780Z,0.73
2023-03-01T01:08:46.833Z,0.72
2023-03-01T01:09:46.898Z,0.72
2023-03-01T01:10:46.994Z,0.71
2023-03-01T01:11:47.030Z,0.71
2023-03-01T01:12:47.114Z,0.73
2023-03-01T01:13:47.147Z,0.71
2023-03-01T01:14:47.238Z,0.71
2023-03-01T01:15:47.304Z,0.72
2023-03-01T03:35:54.016Z,0.69
2023-03-01T03:36:54.026Z,0.70
2023-03-01T03:37:54.095Z,0.69
2023-03-01T03:38:54.147Z,0.69
2023-03-01T03:39:54.178Z,0.69
2023-03-01T03:40:54.543Z,0.68
2023-03-01T03:41:54.297Z,0.69
2023-03-01T03:42:54.325Z,0.70
2023-03-01T03:43:54.351Z,0.68
2023-03-01T03:44:54.430Z,0.69
2023-03-01T03:45:54.492Z,0.69
2023-03-01T03:46:54.499Z,0.68
2023-03-01T03:47:54.520Z,0.69
2023-03-01T03:48:54.599Z,0.69
2023-03-01T03:49:54.642Z,0.68
2023-03-01T03:50:54.650Z,0.68
2023-03-01T03:51:54.677Z,0.69
2023-03-01T03:52:54.730Z,0.69
2023-03-01T03:53:54.796Z,0.68
2023-03-01T03:54:54.802Z,0.69
2023-03-01T03:55:54.900Z,0.69
2023-03-01T03:56:54.946Z,0.69
2023-03-01T03:57:54.962Z,0.70
2023-03-01T03:58:55.018Z,0.68
2023-03-01T03:59:55.036Z,0.69
2023-03-01T04:00:55.059Z,0.69
2023-03-01T04:01:55.105Z,0.69
2023-03-01T04:02:55.172Z,0.67
2023-03-01T04:03:55.162Z,0.68
2023-03-01T04:04:55.222Z,0.68
2023-03-01T04:05:55.306Z,0.68
2023-03-01T04:06:55.293Z,0.68
2023-03-01T04:07:55.297Z,0.67
2023-03-01T04:08:55.346Z,0.68
2023-03-01T04:09:55.383Z,0.68
2023-03-01T04:10:55.409Z,0.68
2023-03-01T04:11:55.452Z,0.68
2023-03-01T04:12:55.477Z,0.68
2023-03-01T04:13:55.492Z,0.69
2023-03-01T04:14:55.552Z,0.68
2023-03-01T04:15:55.603Z,0.69
2023-03-01T04:16:55.717Z,0.69
2023-03-01T04:17:55.621Z,0.68
2023-03-01T04:18:55.633Z,0.69
2023-03-01T04:19:55.669Z,0.69
2023-03-01T04:20:55.711Z,0.68
2023-03-01T04:21:55.732Z,0.68
2023-03-01T04:22:55.760Z,0.68
2023-03-01T04:23:55.765Z,0.68
2023-03-01T04:24:55.802Z,0.68
2023-03-01T04:25:55.837Z,0.67
2023-03-01T04:26:55.844Z,0.67
2023-03-01T04:27:55.826Z,0.68
2023-03-01T04:28:55.874Z,0.68
2023-03-01T04:29:55.904Z,0.67
2023-03-01T04:30:55.913Z,0.67
2023-03-01T04:31:56.063Z,0.67
2023-03-01T04:32:55.969Z,0.68
2023-03-01T04:33:55.983Z,0.67
2023-03-01T04:34:56.025Z,0.67
2023-03-01T04:35:56.167Z,0.67
2023-03-01T04:36:56.129Z,0.67
2023-03-01T04:37:56.093Z,0.66
2023-03-01T04:38:56.100Z,0.67
2023-03-01T04:39:56.151Z,0.67
2023-03-01T04:40:56.152Z,0.67
2023-03-01T04:41:56.202Z,0.67
2023-03-01T04:42:56.214Z,0.67
2023-03-01T04:43:56.467Z,0.66
2023-03-01T04:44:56.252Z,0.66
2023-03-01T04:45:56.329Z,0.66
2023-03-01T04:46:56.312Z,0.65
2023-03-01T04:47:56.314Z,0.65
2023-03-01T04:48:56.412Z,0.67
2023-03-01T04:49:56.408Z,0.66
2023-03-01T04:50:56.424Z,0.66
2023-03-01T04:51:56.494Z,0.66
2023-03-01T04:52:56.508Z,0.67
2023-03-01T04:53:56.503Z,0.64
2023-03-01T04:54:56.511Z,0.64
2023-03-01T04:55:56.630Z,0.65
2023-03-01T04:56:56.624Z,0.65
2023-03-01T04:57:56.646Z,0.65
2023-03-01T04:58:56.641Z,0.64
2023-03-01T04:59:56.695Z,0.64
2023-03-01T05:00:56.749Z,0.65
2023-03-01T05:01:56.774Z,0.65
2023-03-01T05:02:56.816Z,0.66
2023-03-01T05:03:56.824Z,0.65
2023-03-01T05:04:56.865Z,0.65
2023-03-01T05:05:56.951Z,0.65
2023-03-01T05:06:56.959Z,0.65
2023-03-01T05:07:56.973Z,0.63
2023-03-01T05:08:56.977Z,0.63
2023-03-01T05:09:57.026Z,0.66
2023-03-01T05:10:57.073Z,0.65
2023-03-01T05:11:57.150Z,0.65
2023-03-01T05:12:57.156Z,0.66
2023-03-01T05:13:57.161Z,0.64
2023-03-01T05:14:57.208Z,0.64
2023-03-01T05:15:57.318Z,0.63
2023-03-01T05:16:57.281Z,0.63
2023-03-01T05:17:57.311Z,0.64
2023-03-01T05:18:57.381Z,0.63
2023-03-01T05:19:57.403Z,0.63
2023-03-01T05:20:57.449Z,0.64
2023-03-01T05:21:58.802Z,0.63
2023-03-01T05:22:57.618Z,0.64
2023-03-01T05:23:57.577Z,0.62
2023-03-01T05:24:57.636Z,0.64
2023-03-01T05:25:57.667Z,0.63
2023-03-01T05:26:57.713Z,0.64
2023-03-01T05:27:57.761Z,0.63
2023-03-01T05:28:57.824Z,0.64
2023-03-01T05:29:57.864Z,0.63
2023-03-01T05:30:57.958Z,0.62
2023-03-01T05:31:57.995Z,0.63
2023-03-01T05:32:58.003Z,0.63
2023-03-01T05:33:58.077Z,0.63
2023-03-01T05:34:58.127Z,0.62
2023-03-01T05:35:58.170Z,0.63
2023-03-01T05:36:58.239Z,0.61
2023-03-01T05:37:58.347Z,0.62
2023-03-01T05:38:58.300Z,0.63
2023-03-01T05:39:58.351Z,0.61
2023-03-01T05:40:58.418Z,0.62
2023-03-01T05:41:58.472Z,0.62
2023-03-01T05:42:58.506Z,0.62
2023-03-01T05:43:58.598Z,0.62
2023-03-01T05:44:58.630Z,0.63
2023-03-01T05:45:58.666Z,0.63
2023-03-01T05:46:58.715Z,0.62
2023-03-01T05:47:58.775Z,0.61
2023-03-01T05:48:58.834Z,0.62
2023-03-01T05:49:58.880Z,0.62
2023-03-01T05:50:58.940Z,0.60
2023-03-01T05:51:58.993Z,0.62
2023-03-01T05:52:59.006Z,0.61
2023-03-01T05:53:59.071Z,0.61
2023-03-01T05:54:59.135Z,0.62
2023-03-01T05:55:59.215Z,0.62
2023-03-01T05:56:59.282Z,0.62
2023-03-01T05:57:59.279Z,0.62
2023-03-01T05:58:59.361Z,0.62
2023-03-01T05:59:59.419Z,0.60
2023-03-01T06:01:06.504Z,0.61
2023-03-01T06:02:59.424Z,0.62
2023-03-01T06:03:59.437Z,0.61
2023-03-01T06:04:59.640Z,0.61
2023-03-01T06:05:59.443Z,0.60
2023-03-01T06:06:59.444Z,0.61
2023-03-01T06:07:59.395Z,0.62
2023-03-01T06:08:59.410Z,0.61
2023-03-01T06:09:59.416Z,0.62
2023-03-01T06:10:59.383Z,0.61
2023-03-01T06:11:59.380Z,0.61
2023-03-01T06:12:59.411Z,0.61
2023-03-01T06:14:00.131Z,0.60
2023-03-01T06:14:59.377Z,0.61
2023-03-01T06:15:59.397Z,0.60
2023-03-01T06:16:59.351Z,0.60
2023-03-01T06:18:00.314Z,0.65
2023-03-01T06:18:59.385Z,0.73
2023-03-01T06:19:59.371Z,0.72
2023-03-01T06:20:59.356Z,0.74
2023-03-01T06:21:59.429Z,0.76
2023-03-01T06:22:59.318Z,0.85
2023-03-01T06:23:59.315Z,0.87
2023-03-01T06:24:59.325Z,0.89
2023-03-01T06:25:59.339Z,0.85
2023-03-01T06:26:59.420Z,0.86
2023-03-01T06:27:59.454Z,0.85
2023-03-01T06:28:59.509Z,0.86
2023-03-01T06:29:59.579Z,0.90
2023-03-01T06:30:59.688Z,0.87
2023-03-01T06:32:00.171Z,0.88
2023-03-01T06:32:59.785Z,0.89
2023-03-01T06:33:59.825Z,0.89
2023-03-01T06:34:59.891Z,0.86
2023-03-01T06:36:00.003Z,0.86
2023-03-01T06:37:00.215Z,0.83
2023-03-01T06:38:00.032Z,0.81
2023-03-01T06:39:00.100Z,0.83
2023-03-01T06:40:00.157Z,0.71
2023-03-01T06:41:00.204Z,0.76
2023-03-01T06:42:00.683Z,0.72
2023-03-01T06:43:00.369Z,0.72
2023-03-01T06:44:00.404Z,0.71
2023-03-01T06:45:00.551Z,0.72
2023-03-01T06:46:07.543Z,0.77
2023-03-01T06:48:00.610Z,0.75
2023-03-01T06:49:00.539Z,0.77
2023-03-01T06:50:00.550Z,0.76
2023-03-01T06:51:00.500Z,0.78
2023-03-01T06:52:01.235Z,0.76
2023-03-01T06:53:00.463Z,0.78
2023-03-01T06:54:01.750Z,0.79
2023-03-01T06:55:00.420Z,0.79
2023-03-01T06:56:00.439Z,0.81
2023-03-01T06:57:00.443Z,0.81
2023-03-01T06:58:01.744Z,0.84
2023-03-01T06:59:00.402Z,0.85
2023-03-01T07:00:00.396Z,0.87
2023-03-01T07:01:00.357Z,0.90
2023-03-01T07:02:00.394Z,0.91
2023-03-01T07:03:00.460Z,0.92
2023-03-01T07:04:00.377Z,0.93
2023-03-01T07:05:00.383Z,0.96
2023-03-01T07:06:00.343Z,0.98
2023-03-01T07:07:00.404Z,0.99
2023-03-01T07:08:01.706Z,1.01
2023-03-01T07:09:00.328Z,1.03
2023-03-01T07:10:00.317Z,1.05
2023-03-01T07:11:00.322Z,1.08
2023-03-01T07:12:00.305Z,1.10
2023-03-01T07:13:00.433Z,1.11
2023-03-01T07:14:00.284Z,1.14
2023-03-01T07:15:00.290Z,1.16
2023-03-01T07:16:00.325Z,1.18
2023-03-01T07:17:00.280Z,1.19
2023-03-01T07:18:00.527Z,1.20
2023-03-01T07:19:00.916Z,1.22
2023-03-01T07:20:00.295Z,1.23
2023-03-01T07:21:00.309Z,1.26
2023-03-01T07:22:00.259Z,1.31
2023-03-01T07:23:00.848Z,1.29
2023-03-01T07:24:00.214Z,1.30
2023-03-01T07:25:00.218Z,1.33
2023-03-01T07:26:00.263Z,1.34
2023-03-01T07:27:00.340Z,1.36
2023-03-01T07:28:00.509Z,1.38
2023-03-01T07:29:00.457Z,1.42
2023-03-01T07:30:00.457Z,1.41
2023-03-01T07:31:00.554Z,1.45
2023-03-01T07:32:00.743Z,1.46
2023-03-01T07:33:01.091Z,1.45
2023-03-01T07:34:00.732Z,1.46
2023-03-01T07:35:00.831Z,1.47
2023-03-01T07:36:00.863Z,1.45
2023-03-01T07:37:00.932Z,1.50
2023-03-01T07:38:00.973Z,1.48
2023-03-01T07:39:01.032Z,0.97
2023-03-01T07:40:01.096Z,0.73
2023-03-01T07:41:01.042Z,0.62
2023-03-01T07:42:01.048Z,0.53
2023-03-01T07:43:01.213Z,0.53
2023-03-01T07:44:01.137Z,0.45
2023-03-01T07:45:01.139Z,0.50
2023-03-01T07:46:01.298Z,0.51
2023-03-01T07:47:01.244Z,0.51
2023-03-01T07:48:01.908Z,0.41
2023-03-01T07:49:02.189Z,0.51
2023-03-01T07:50:01.324Z,0.68
2023-03-01T07:51:01.374Z,0.87
2023-03-01T07:52:01.369Z,0.80
2023-03-01T07:53:01.433Z,0.91
2023-03-01T07:54:01.455Z,0.96
2023-03-01T07:55:01.504Z,0.94
2023-03-01T07:56:01.567Z,0.87
2023-03-01T07:57:02.136Z,0.83
2023-03-01T07:58:01.721Z,0.80
2023-03-01T07:59:01.530Z,0.84
2023-03-01T08:00:01.525Z,0.84
2023-03-01T08:01:01.533Z,0.80
2023-03-01T08:02:01.579Z,0.79
2023-03-01T08:03:01.711Z,0.73
2023-03-01T08:04:01.513Z,0.82
2023-03-01T08:05:01.515Z,0.80
2023-03-01T08:06:01.538Z,0.81
2023-03-01T08:07:01.570Z,0.80
2023-03-01T08:08:01.621Z,0.81
2023-03-01T08:09:01.643Z,0.81
2023-03-01T08:10:01.655Z,0.77
2023-03-01T08:11:01.703Z,0.79
2023-03-01T08:12:01.873Z,0.76
2023-03-01T08:13:01.817Z,0.83
2023-03-01T08:14:01.900Z,0.92
2023-03-01T08:15:01.944Z,0.84
2023-03-01T08:16:02.049Z,0.91
2023-03-01T08:17:02.050Z,0.96
2023-03-01T08:18:02.259Z,0.89
2023-03-01T08:19:02.167Z,0.90
2023-03-01T08:20:02.235Z,0.86
2023-03-01T08:21:02.284Z,0.81
2023-03-01T08:22:02.338Z,0.85
2023-03-01T08:23:02.448Z,0.81
2023-03-01T08:24:02.711Z,0.79
2023-03-01T08:25:02.516Z,0.82
2023-03-01T08:26:02.563Z,0.68
2023-03-01T08:27:02.590Z,0.78
2023-03-01T08:28:02.701Z,0.77
2023-03-01T08:29:02.750Z,0.75
2023-03-01T08:30:02.808Z,0.76
2023-03-01T08:31:02.828Z,0.74
2023-03-01T08:32:03.015Z,0.67
2023-03-01T08:33:02.989Z,0.70
2023-03-01T08:34:02.992Z,0.66
2023-03-01T08:37:03.163Z,0.65
2023-03-01T08:38:03.221Z,0.69
2023-03-01T08:39:03.291Z,0.72
2023-03-01T08:40:03.360Z,0.60
2023-03-01T08:41:03.348Z,0.68
2023-03-01T08:42:03.467Z,0.69
2023-03-01T08:43:03.517Z,0.73
2023-03-01T08:44:03.573Z,0.76
2023-03-01T08:45:03.582Z,0.77
2023-03-01T08:46:03.710Z,0.83
2023-03-01T08:47:03.644Z,0.82
2023-03-01T08:48:03.695Z,0.84
2023-03-01T08:49:03.761Z,0.85
2023-03-01T08:50:03.773Z,0.84
2023-03-01T08:51:03.776Z,0.86
2023-03-01T08:52:03.755Z,0.86
2023-03-01T08:53:03.845Z,0.88
2023-03-01T08:54:03.791Z,0.88
2023-03-01T08:55:03.765Z,0.92
2023-03-01T08:56:03.811Z,0.89
2023-03-01T08:57:03.824Z,0.90
2023-03-01T08:58:03.832Z,0.89
2023-03-01T08:59:04.238Z,0.92
2023-03-01T09:00:03.934Z,0.93
2023-03-01T09:01:03.968Z,0.93
2023-03-01T09:02:04.095Z,0.93
2023-03-01T09:03:04.124Z,0.93
2023-03-01T09:04:04.183Z,0.97
2023-03-01T09:05:04.212Z,0.96
2023-03-01T09:06:04.239Z,0.99
2023-03-01T09:07:04.453Z,1.02
2023-03-01T09:08:04.394Z,0.99
2023-03-01T09:09:04.410Z,1.02
2023-03-01T09:10:04.458Z,1.00
2023-03-01T09:11:04.533Z,1.09
2023-03-01T09:12:04.550Z,1.08
2023-03-01T09:13:04.647Z,1.06
2023-03-01T09:14:04.653Z,1.16
2023-03-01T09:15:04.732Z,1.21
2023-03-01T09:16:04.714Z,1.24
2023-03-01T09:17:04.849Z,1.25
2023-03-01T09:18:04.795Z,1.30
2023-03-01T09:19:05.244Z,1.36
2023-03-01T09:20:04.902Z,1.39
2023-03-01T09:21:04.917Z,1.42
2023-03-01T09:22:04.958Z,1.47
2023-03-01T09:23:04.982Z,1.50
2023-03-01T09:24:05.288Z,1.51
2023-03-01T09:25:05.048Z,1.53
2023-03-01T09:26:05.054Z,1.56
2023-03-01T09:27:05.059Z,1.60
2023-03-01T09:28:05.119Z,1.59
2023-03-01T09:29:05.111Z,1.57
2023-03-01T09:30:05.145Z,1.60
2023-03-01T09:31:05.351Z,1.59
2023-03-01T09:32:05.272Z,1.59
2023-03-01T09:33:05.195Z,1.60
2023-03-01T09:34:05.228Z,1.60
2023-03-01T09:35:05.197Z,1.56
2023-03-01T09:36:05.330Z,1.52
2023-03-01T09:37:05.231Z,1.54
2023-03-01T09:38:05.280Z,1.49
2023-03-01T09:39:05.300Z,1.31
2023-03-01T09:40:05.292Z,1.42
2023-03-01T09:41:05.318Z,1.48
2023-03-01T09:42:05.431Z,1.50
2023-03-01T09:43:06.247Z,1.50
2023-03-01T09:44:05.778Z,1.47
2023-03-01T09:45:05.410Z,1.44
2023-03-01T09:46:05.446Z,1.33
2023-03-01T09:47:05.458Z,1.28
2023-03-01T09:48:05.611Z,1.26
2023-03-01T09:49:05.776Z,1.32
2023-03-01T09:50:05.517Z,1.38
2023-03-01T09:52:05.584Z,1.48
2023-03-01T09:53:05.590Z,1.50
2023-03-01T09:54:05.778Z,1.52
2023-03-01T09:55:05.714Z,1.54
2023-03-01T09:56:05.663Z,1.37
2023-03-01T09:57:05.666Z,1.40
2023-03-01T09:58:05.674Z,1.51
2023-03-01T09:59:05.804Z,1.30
2023-03-01T10:00:05.782Z,0.84
2023-03-01T10:01:05.799Z,0.52
2023-03-01T10:02:05.868Z,0.47
2023-03-01T10:03:05.899Z,0.34
2023-03-01T10:04:05.995Z,0.42
2023-03-01T10:05:05.930Z,0.39
2023-03-01T10:07:06.082Z,0.61
2023-03-01T10:08:07.039Z,0.34
2023-03-01T10:09:06.003Z,0.34
2023-03-01T10:10:06.020Z,0.34
2023-03-01T10:11:06.739Z,0.34
2023-03-01T10:12:05.984Z,0.34
2023-03-01T10:13:05.979Z,0.34
2023-03-01T10:14:05.993Z,0.43
2023-03-01T10:15:05.955Z,0.34
2023-03-01T10:20:05.945Z,1.05
2023-03-01T10:21:05.991Z,1.15
2023-03-01T10:22:06.110Z,0.98
2023-03-01T10:23:06.113Z,0.43
2023-03-01T10:24:06.327Z,0.45
2023-03-01T10:26:06.264Z,0.41
2023-03-01T10:27:06.287Z,0.48
2023-03-01T10:28:06.301Z,0.69
2023-03-01T10:29:06.310Z,1.13
2023-03-01T10:30:06.312Z,1.32
2023-03-01T10:31:08.322Z,0.97
2023-03-01T10:32:06.308Z,0.84
2023-03-01T10:33:06.289Z,0.93
2023-03-01T10:34:06.290Z,0.60
2023-03-01T10:35:06.796Z,0.93
2023-03-01T10:36:06.420Z,1.93
2023-03-01T10:37:06.314Z,1.44
2023-03-01T10:38:06.325Z,0.89
2023-03-01T10:39:06.316Z,1.59
2023-03-01T10:40:06.384Z,1.10
2023-03-01T10:41:06.597Z,1.39
2023-03-01T10:42:06.491Z,2.07
2023-03-01T10:43:06.577Z,2.08
2023-03-01T10:44:06.689Z,2.07
2023-03-01T10:45:06.797Z,2.32
2023-03-01T10:46:06.792Z,1.23
2023-03-01T10:47:06.727Z,1.55
2023-03-01T10:48:06.790Z,1.78
2023-03-01T10:49:06.843Z,1.27
2023-03-01T10:50:06.882Z,1.35
2023-03-01T10:51:06.914Z,1.54
2023-03-01T10:52:06.925Z,1.59
2023-03-01T10:53:06.973Z,0.68
2023-03-01T10:54:07.073Z,0.60
2023-03-01T10:55:07.105Z,0.82
2023-03-01T10:56:07.166Z,1.31
2023-03-01T10:57:07.246Z,1.85
2023-03-01T10:58:07.279Z,2.04
2023-03-01T10:59:07.339Z,2.47
2023-03-01T11:00:07.805Z,2.29
2023-03-01T11:01:07.412Z,2.76
2023-03-01T11:02:22.208Z,2.53
2023-03-01T11:04:07.508Z,1.65
2023-03-01T11:05:07.867Z,2.36
2023-03-01T11:06:07.375Z,2.79
2023-03-01T11:07:07.330Z,2.38
2023-03-01T11:08:07.311Z,2.97
2023-03-01T11:09:07.334Z,3.19
2023-03-01T11:10:07.354Z,3.25
2023-03-01T11:11:07.303Z,3.31
2023-03-01T11:12:07.312Z,2.48
2023-03-01T11:13:07.288Z,3.28
2023-03-01T11:14:23.747Z,3.72
2023-03-01T11:16:07.336Z,3.66
2023-03-01T11:17:07.283Z,3.63
2023-03-01T11:18:14.157Z,3.68
2023-03-01T11:19:08.236Z,3.73
2023-03-01T11:20:07.274Z,3.73
2023-03-01T11:21:07.277Z,3.79
2023-03-01T11:22:07.294Z,3.76
2023-03-01T11:23:07.251Z,3.71
2023-03-01T11:24:07.269Z,2.74
2023-03-01T11:25:10.772Z,1.60
2023-03-01T11:28:07.218Z,1.38
2023-03-01T11:29:07.239Z,2.03
2023-03-01T11:30:07.314Z,3.87
2023-03-01T11:31:09.267Z,3.47
2023-03-01T11:32:07.270Z,3.41
2023-03-01T11:33:07.273Z,3.50
2023-03-01T11:34:07.162Z,3.48
2023-03-01T11:35:07.308Z,2.99
2023-03-01T11:36:07.241Z,4.54
2023-03-01T11:37:07.144Z,3.83
2023-03-01T11:38:07.149Z,4.10
2023-03-01T11:40:07.103Z,4.03
2023-03-01T11:43:07.231Z,4.84
2023-03-01T11:44:07.439Z,5.08
2023-03-01T11:45:07.236Z,5.13
2023-03-01T11:46:07.327Z,5.16
2023-03-01T11:47:07.443Z,5.41
2023-03-01T11:48:07.439Z,4.90
2023-03-01T11:52:07.647Z,5.23
2023-03-01T11:54:07.733Z,5.30
2023-03-01T11:55:07.818Z,5.26
2023-03-01T11:56:07.896Z,5.25
2023-03-01T11:57:07.969Z,5.26
2023-03-01T11:58:07.973Z,5.12
2023-03-01T11:59:08.075Z,6.42
2023-03-01T12:00:08.326Z,10.58
2023-03-01T12:01:08.183Z,7.85
2023-03-01T12:02:08.348Z,9.85
2023-03-01T12:03:08.461Z,9.48
2023-03-01T12:04:08.345Z,6.22
2023-03-01T12:05:08.325Z,9.16
2023-03-01T12:06:08.397Z,10.74
2023-03-01T12:07:08.374Z,9.45
2023-03-01T12:08:08.380Z,9.07
2023-03-01T12:09:08.380Z,9.08
2023-03-01T12:10:08.442Z,6.42
2023-03-01T12:11:08.419Z,6.35
2023-03-01T12:12:08.373Z,4.76
2023-03-01T12:13:08.378Z,4.36
2023-03-01T12:14:08.397Z,3.88
2023-03-01T12:15:08.426Z,5.20
2023-03-01T12:16:08.477Z,6.16
2023-03-01T12:17:08.629Z,5.39
2023-03-01T12:18:08.488Z,5.39
2023-03-01T12:19:08.491Z,5.56
2023-03-01T12:20:10.290Z,6.84
2023-03-01T12:21:08.538Z,6.14
2023-03-01T12:22:08.559Z,6.39
2023-03-01T12:23:20.070Z,6.13
2023-03-01T12:24:09.623Z,6.13
2023-03-01T12:25:08.540Z,3.59
2023-03-01T12:26:08.819Z,5.56
2023-03-01T12:27:08.511Z,6.39
2023-03-01T12:28:08.509Z,6.34
2023-03-01T12:29:08.531Z,6.01
2023-03-01T12:30:08.535Z,6.57
2023-03-01T12:31:08.830Z,6.79
2023-03-01T12:32:08.579Z,6.71
2023-03-01T12:33:08.479Z,6.83
2023-03-01T12:34:08.488Z,7.55
2023-03-01T12:35:08.488Z,8.19
2023-03-01T12:36:08.894Z,8.77
2023-03-01T12:37:08.437Z,9.00
2023-03-01T12:38:08.464Z,8.95
2023-03-01T12:39:08.448Z,9.34
2023-03-01T12:40:08.490Z,9.83
2023-03-01T12:41:08.576Z,9.89
2023-03-01T12:42:08.580Z,10.22
2023-03-01T12:43:08.662Z,10.19
2023-03-01T12:44:08.683Z,10.45
2023-03-01T12:45:08.714Z,10.56
2023-03-01T12:46:08.822Z,10.84
2023-03-01T12:47:08.785Z,10.97
2023-03-01T12:48:08.796Z,10.92
2023-03-01T12:49:08.871Z,11.31
2023-03-01T12:50:08.877Z,11.18
2023-03-01T12:51:08.926Z,11.24
2023-03-01T12:52:09.005Z,11.37
2023-03-01T12:53:09.001Z,11.42
2023-03-01T12:54:09.007Z,11.35
2023-03-01T12:55:09.075Z,11.62
2023-03-01T12:56:09.334Z,11.60
2023-03-01T12:57:09.113Z,11.52
2023-03-01T12:58:09.285Z,11.71
2023-03-01T12:59:09.238Z,11.61
2023-03-01T13:00:09.236Z,11.61
2023-03-01T13:01:09.324Z,11.77
2023-03-01T13:02:09.292Z,11.63
2023-03-01T13:03:09.322Z,11.73
2023-03-01T13:04:09.413Z,11.79
2023-03-01T13:05:09.400Z,11.83
2023-03-01T13:06:09.430Z,11.55
2023-03-01T13:07:09.424Z,11.59
2023-03-01T13:08:09.471Z,11.80
2023-03-01T13:09:09.546Z,11.73
2023-03-01T13:10:09.552Z,11.66
2023-03-01T13:11:09.575Z,11.47
2023-03-01T13:12:19.963Z,11.45
2023-03-01T13:13:10.594Z,11.47
2023-03-01T13:14:09.583Z,11.50
2023-03-01T13:15:09.587Z,11.54
2023-03-01T13:16:09.889Z,11.55
2023-03-01T13:17:09.567Z,11.79
2023-03-01T13:18:09.533Z,11.54
2023-03-01T13:19:09.554Z,11.39
2023-03-01T13:20:09.517Z,11.39
2023-03-01T13:21:09.567Z,11.25
2023-03-01T13:22:09.537Z,11.24
2023-03-01T13:23:09.592Z,11.34
2023-03-01T13:24:09.543Z,11.25
2023-03-01T13:25:09.553Z,11.14
2023-03-01T13:26:09.864Z,11.00
2023-03-01T13:27:09.534Z,11.04
2023-03-01T13:28:09.585Z,10.83
2023-03-01T13:29:09.653Z,10.75
2023-03-01T13:30:09.707Z,10.28
2023-03-01T13:31:09.785Z,9.81
2023-03-01T13:32:09.892Z,9.58
2023-03-01T13:33:09.891Z,9.42
2023-03-01T13:34:09.870Z,9.48
2023-03-01T13:35:09.929Z,9.37
2023-03-01T13:36:10.053Z,9.12
2023-03-01T13:37:10.048Z,8.89
2023-03-01T13:38:10.084Z,8.55
2023-03-01T13:39:10.164Z,8.60
2023-03-01T13:40:10.261Z,8.23
2023-03-01T13:41:10.287Z,8.13
2023-03-01T13:42:10.337Z,8.15
2023-03-01T13:43:10.400Z,8.24
2023-03-01T13:44:10.624Z,8.17
2023-03-01T13:45:10.543Z,8.10
2023-03-01T13:46:10.674Z,7.87
2023-03-01T13:47:10.678Z,7.80
2023-03-01T13:48:10.756Z,7.66
2023-03-01T13:49:10.781Z,7.36
2023-03-01T13:50:10.843Z,7.47
2023-03-01T13:51:10.907Z,7.48
2023-03-01T13:52:10.965Z,7.40
2023-03-01T13:53:11.062Z,7.63
2023-03-01T13:54:11.083Z,7.65
2023-03-01T13:55:11.123Z,7.56
2023-03-01T13:56:11.413Z,7.54
2023-03-01T13:57:11.208Z,7.48
2023-03-01T13:58:11.857Z,7.54
2023-03-01T13:59:11.354Z,7.52
2023-03-01T14:00:11.309Z,7.53
2023-03-01T14:01:11.521Z,7.54
2023-03-01T14:02:11.394Z,7.46
2023-03-01T14:03:11.432Z,7.53
2023-03-01T14:04:11.504Z,8.04
2023-03-01T14:05:11.496Z,7.95
2023-03-01T14:06:15.876Z,8.90
2023-03-01T14:07:11.522Z,9.10
2023-03-01T14:08:11.598Z,9.69
2023-03-01T14:09:11.545Z,10.63
2023-03-01T14:10:11.510Z,14.36
2023-03-01T14:11:11.518Z,24.22
2023-03-01T14:12:11.519Z,25.02
2023-03-01T14:13:16.331Z,22.31
2023-03-01T14:14:12.463Z,22.46
2023-03-01T14:15:11.487Z,23.20
2023-03-01T14:16:11.558Z,24.94
2023-03-01T14:17:11.454Z,29.33
2023-03-01T14:18:11.447Z,35.22
2023-03-01T14:19:14.100Z,36.86
2023-03-01T14:20:11.479Z,42.14
2023-03-01T14:21:11.882Z,40.95
2023-03-01T14:22:11.420Z,38.01
2023-03-01T14:23:11.434Z,39.31
2023-03-01T14:24:11.430Z,38.14
2023-03-01T14:31:11.473Z,34.49
2023-03-01T14:32:11.352Z,33.15
2023-03-01T14:33:11.348Z,32.32
2023-03-01T14:34:11.363Z,32.53
2023-03-01T14:35:11.315Z,29.97
2023-03-01T14:36:11.323Z,26.93
2023-03-01T14:37:11.372Z,25.61
2023-03-01T14:38:11.281Z,24.67
2023-03-01T14:39:11.288Z,23.54
2023-03-01T14:40:11.281Z,22.45
2023-03-01T16:34:11.096Z,7.66
2023-03-01T16:46:11.589Z,7.47
2023-03-01T16:49:11.631Z,7.18
2023-03-01T16:50:11.690Z,7.16
2023-03-01T16:51:11.684Z,7.33
2023-03-01T16:52:11.723Z,7.20
2023-03-01T16:53:11.824Z,7.27
2023-03-01T16:54:11.829Z,6.93
2023-03-01T16:55:11.876Z,7.04
2023-03-01T16:56:11.897Z,7.24
2023-03-01T16:57:11.945Z,7.04
2023-03-01T16:58:11.994Z,6.93
2023-03-01T16:59:12.029Z,6.90
2023-03-01T17:00:12.090Z,7.03
2023-03-01T17:01:12.206Z,6.57
2023-03-01T17:02:12.140Z,6.79
2023-03-01T17:03:12.235Z,6.91
2023-03-01T17:04:12.263Z,7.04
2023-03-01T17:05:12.293Z,6.87
2023-03-01T17:06:12.317Z,6.93
2023-03-01T17:07:12.391Z,6.85
2023-03-01T17:08:12.476Z,6.63
2023-03-01T17:09:12.453Z,6.52
2023-03-01T17:10:12.502Z,6.58
2023-03-01T17:11:12.543Z,6.56
2023-03-01T17:12:12.603Z,6.54
2023-03-01T17:13:12.661Z,6.61
2023-03-01T17:14:12.680Z,6.71
2023-03-01T17:15:12.759Z,6.60
2023-03-01T17:16:12.867Z,6.58
2023-03-01T17:17:12.841Z,6.58
2023-03-01T17:18:12.876Z,6.71
2023-03-01T17:19:12.915Z,6.53
2023-03-01T17:20:12.951Z,6.54
2023-03-01T17:21:13.035Z,6.54
2023-03-01T17:22:13.041Z,6.48
2023-03-01T17:23:13.133Z,6.50
2023-03-01T17:24:13.104Z,6.53
2023-03-01T17:25:13.218Z,6.35
2023-03-01T17:26:13.211Z,6.24
2023-03-01T17:27:13.293Z,6.27
2023-03-01T17:28:13.335Z,6.35
2023-03-01T17:29:13.337Z,6.35
2023-03-01T17:30:13.443Z,6.22
2023-03-01T17:31:13.450Z,6.22
2023-03-01T17:32:13.634Z,6.22
2023-03-01T17:33:13.529Z,6.34
2023-03-01T17:34:13.558Z,6.12
2023-03-01T17:35:13.586Z,6.14
2023-03-01T17:36:13.690Z,6.35
2023-03-01T17:37:13.715Z,6.42
2023-03-01T17:38:13.761Z,6.22
2023-03-01T17:39:13.802Z,6.25
2023-03-01T17:40:13.894Z,6.13
2023-03-01T17:41:13.886Z,6.12
2023-03-01T17:42:13.922Z,6.19
2023-03-01T17:43:13.957Z,5.94
2023-03-01T17:44:14.001Z,6.05
2023-03-01T17:45:14.056Z,6.26
2023-03-01T17:46:14.176Z,5.92
2023-03-01T17:47:14.200Z,6.08
2023-03-01T17:55:14.575Z,5.75
2023-03-01T17:56:14.555Z,5.75
2023-03-01T17:57:14.616Z,5.81
2023-03-01T17:58:14.717Z,5.76
2023-03-01T17:59:14.730Z,5.84
2023-03-01T18:00:14.756Z,5.85
2023-03-01T18:01:14.980Z,5.80
2023-03-01T18:02:14.913Z,5.77
2023-03-01T18:03:14.880Z,5.93
2023-03-01T18:04:14.965Z,5.88
2023-03-01T18:05:14.971Z,5.81
2023-03-01T18:06:15.040Z,5.86
2023-03-01T18:07:15.082Z,5.80
2023-03-01T18:08:15.122Z,5.80
2023-03-01T18:09:15.159Z,5.75
2023-03-01T18:10:15.205Z,5.64
2023-03-01T18:11:15.271Z,5.63
2023-03-01T18:12:15.320Z,5.78
2023-03-01T18:13:15.377Z,5.76
2023-03-01T18:14:15.428Z,5.74
2023-03-01T18:32:16.354Z,5.61
2023-03-01T18:33:16.396Z,5.33
2023-03-01T18:34:16.395Z,5.38
2023-03-01T18:35:16.467Z,5.36
2023-03-01T18:36:16.523Z,5.26
2023-03-01T18:37:16.556Z,5.49
2023-03-01T18:38:16.648Z,5.22
2023-03-01T18:39:16.662Z,5.17
2023-03-01T18:40:16.719Z,5.29
2023-03-01T18:41:16.794Z,5.08
2023-03-01T18:42:16.913Z,5.13
2023-03-01T18:43:16.865Z,5.19
2023-03-01T18:44:16.927Z,5.16
2023-03-01T18:45:16.991Z,5.51
2023-03-01T18:46:17.099Z,5.26
2023-03-01T18:47:17.294Z,5.39
2023-03-01T18:48:17.112Z,5.35
2023-03-01T18:49:17.144Z,5.29
2023-03-01T18:50:17.255Z,5.26
2023-03-01T18:51:17.306Z,5.20
2023-03-01T18:52:17.303Z,5.22
2023-03-01T18:53:17.401Z,5.23
2023-03-01T18:54:17.403Z,5.18
2023-03-01T18:55:17.632Z,5.26
2023-03-01T18:56:17.536Z,5.21